Time;durP1;ratioP1;P1;durP2;ratioP2;P2;SDS_P1;SDS_P2;PMS_P1;PMS_P2;Temp;Humidity;BMP_temperature;BMP_pressure;BME280_temperature;BME280_humidity;BME280_pressure;Samples;Min_cycle;Max_cycle;Signal;HPM_P1;HPM_P2
2023/09/26 00:01:31;;;;;;;2.17;1.97;;;;;;;;;;5053684;28;20960;-80
2023/09/26 00:03:57;;;;;;;2.45;2.25;;;;;;;;;;5052397;28;20402;-80
2023/09/26 00:06:23;;;;;;;3.00;2.07;;;;;;;;;;5052378;28;20382;-81
2023/09/26 00:08:52;;;;;;;2.20;2.00;;;;;;;;;;5052317;28;20396;-81
2023/09/26 00:11:18;;;;;;;2.50;1.77;;;;;;;;;;5052188;28;20882;-80
2023/09/26 00:13:44;;;;;;;2.00;1.80;;;;;;;;;;5052442;28;20394;-80
2023/09/26 00:16:11;;;;;;;2.47;1.77;;;;;;;;;;5051380;28;20394;-80
2023/09/26 00:18:40;;;;;;;1.98;1.80;;;;;;;;;;5052244;28;20460;-80
2023/09/26 00:21:06;;;;;;;1.83;1.73;;;;;;;;;;5052030;28;20413;-80
2023/09/26 00:23:32;;;;;;;2.17;1.98;;;;;;;;;;5051946;28;20447;-80
2023/09/26 00:25:58;;;;;;;2.15;1.70;;;;;;;;;;5051624;28;20389;-80
2023/09/26 00:28:24;;;;;;;2.25;2.00;;;;;;;;;;5052099;28;20424;-81
2023/09/26 00:30:50;;;;;;;1.80;1.70;;;;;;;;;;5052217;28;20847;-80
2023/09/26 00:33:16;;;;;;;1.90;1.60;;;;;;;;;;5051984;28;20388;-80
2023/09/26 00:35:42;;;;;;;2.55;1.90;;;;;;;;;;5052008;28;20435;-80
2023/09/26 00:38:08;;;;;;;2.00;1.80;;;;;;;;;;5051862;28;20393;-80
2023/09/26 00:40:34;;;;;;;1.83;1.70;;;;;;;;;;5051563;28;20385;-80
2023/09/26 00:43:00;;;;;;;1.95;1.85;;;;;;;;;;5051848;28;20401;-80
2023/09/26 00:45:26;;;;;;;2.20;1.60;;;;;;;;;;5054230;28;20439;-80
2023/09/26 00:47:53;;;;;;;1.80;1.70;;;;;;;;;;5051916;28;20428;-80
2023/09/26 00:50:20;;;;;;;1.90;1.80;;;;;;;;;;5051731;28;20934;-80
2023/09/26 00:52:49;;;;;;;2.88;1.70;;;;;;;;;;5051824;28;20385;-80
2023/09/26 00:55:17;;;;;;;1.98;1.77;;;;;;;;;;5051518;28;20390;-80
2023/09/26 00:57:43;;;;;;;3.10;1.80;;;;;;;;;;5051980;28;20374;-80
2023/09/26 01:00:12;;;;;;;2.30;2.10;;;;;;;;;;5054149;28;20442;-80
2023/09/26 01:02:39;;;;;;;2.03;1.83;;;;;;;;;;5054708;28;20415;-80
2023/09/26 01:05:06;;;;;;;2.22;2.03;;;;;;;;;;5054802;28;20746;-80
2023/09/26 01:07:32;;;;;;;1.98;1.77;;;;;;;;;;5055072;28;20464;-80
2023/09/26 01:09:58;;;;;;;1.70;1.60;;;;;;;;;;5055586;28;20870;-80
2023/09/26 01:12:24;;;;;;;2.47;2.00;;;;;;;;;;5055314;28;20412;-81
2023/09/26 01:14:50;;;;;;;2.10;1.90;;;;;;;;;;5055230;28;20382;-80
2023/09/26 01:17:16;;;;;;;2.85;2.03;;;;;;;;;;5054426;28;20696;-80
2023/09/26 01:19:42;;;;;;;5.53;2.00;;;;;;;;;;5055228;28;20731;-80
2023/09/26 01:22:08;;;;;;;1.60;1.47;;;;;;;;;;5063688;28;20413;-80
2023/09/26 01:24:37;;;;;;;1.85;1.75;;;;;;;;;;5054953;28;20405;-80
2023/09/26 01:27:04;;;;;;;2.30;1.90;;;;;;;;;;5037049;28;20386;-80
2023/09/26 01:29:30;;;;;;;1.90;1.80;;;;;;;;;;5055211;28;20796;-80
2023/09/26 01:31:56;;;;;;;2.03;1.92;;;;;;;;;;5054603;28;20476;-80
2023/09/26 01:34:21;;;;;;;2.15;1.95;;;;;;;;;;5054572;28;20468;-80
2023/09/26 01:36:47;;;;;;;2.00;1.90;;;;;;;;;;5049664;28;20891;-80
2023/09/26 01:39:13;;;;;;;2.40;1.60;;;;;;;;;;5050629;28;20440;-80
2023/09/26 01:41:41;;;;;;;2.20;2.00;;;;;;;;;;5048021;28;20419;-80
2023/09/26 01:44:07;;;;;;;2.30;2.10;;;;;;;;;;5053233;28;20401;-80
2023/09/26 01:46:33;;;;;;;2.30;2.10;;;;;;;;;;5056901;28;20385;-80
2023/09/26 01:48:59;;;;;;;2.13;1.98;;;;;;;;;;5054585;28;20731;-80
2023/09/26 01:51:25;;;;;;;2.28;2.03;;;;;;;;;;5054882;28;20385;-80
2023/09/26 01:53:59;;;;;;;2.30;2.10;;;;;;;;;;5144466;23;20916;-80
2023/09/26 01:56:25;;;;;;;2.22;2.03;;;;;;;;;;5076005;28;20488;-80
2023/09/26 01:58:57;;;;;;;2.00;1.80;;;;;;;;;;5056225;28;20859;-80
2023/09/26 02:01:27;;;;;;;2.53;1.87;;;;;;;;;;5062101;28;20418;-80
2023/09/26 02:03:56;;;;;;;2.10;1.80;;;;;;;;;;5074287;28;20383;-80
2023/09/26 02:06:31;;;;;;;2.30;2.10;;;;;;;;;;5076513;28;20441;-79
2023/09/26 02:12:03;;;;;;;2.00;1.83;;;;;;;;;;5062262;28;20384;-79
2023/09/26 02:14:39;;;;;;;2.47;1.73;;;;;;;;;;5073979;28;20376;-79
2023/09/26 02:17:11;;;;;;;2.13;1.92;;;;;;;;;;5061204;28;20375;-79
2023/09/26 02:20:00;;;;;;;1.95;1.80;;;;;;;;;;5073256;28;20857;-79
2023/09/26 02:22:42;;;;;;;1.70;1.60;;;;;;;;;;5053999;28;20972;-79
2023/09/26 02:25:23;;;;;;;2.15;1.75;;;;;;;;;;5073821;28;20395;-79
2023/09/26 02:27:53;;;;;;;2.35;2.00;;;;;;;;;;5073276;28;20372;-79
2023/09/26 02:30:31;;;;;;;2.80;1.80;;;;;;;;;;5073590;28;20382;-79
2023/09/26 02:33:26;;;;;;;2.42;1.90;;;;;;;;;;5073481;28;20395;-79
2023/09/26 02:35:53;;;;;;;1.88;1.75;;;;;;;;;;5074111;28;20426;-79
2023/09/26 02:38:25;;;;;;;2.00;1.80;;;;;;;;;;5076821;28;20382;-79
2023/09/26 02:40:57;;;;;;;2.67;1.70;;;;;;;;;;5060299;28;20475;-79
2023/09/26 02:43:23;;;;;;;2.30;1.60;;;;;;;;;;5073681;28;20387;-79
2023/09/26 02:45:52;;;;;;;1.90;1.80;;;;;;;;;;5073609;28;20770;-79
2023/09/26 02:48:25;;;;;;;1.92;1.70;;;;;;;;;;5073362;28;20462;-80
2023/09/26 02:51:04;;;;;;;1.83;1.73;;;;;;;;;;5073117;28;20467;-79
2023/09/26 02:53:33;;;;;;;2.47;1.60;;;;;;;;;;5072795;28;20469;-79
2023/09/26 02:56:07;;;;;;;2.30;1.80;;;;;;;;;;5072775;28;20376;-79
2023/09/26 02:58:37;;;;;;;2.67;2.00;;;;;;;;;;5055525;28;20388;-79
2023/09/26 03:01:15;;;;;;;2.15;1.75;;;;;;;;;;5073215;28;20399;-79
2023/09/26 03:04:15;;;;;;;1.93;1.53;;;;;;;;;;5084204;22;20433;-80
2023/09/26 03:06:53;;;;;;;2.33;1.87;;;;;;;;;;5042023;28;20465;-79
2023/09/26 03:09:49;;;;;;;1.88;1.75;;;;;;;;;;5053350;28;20400;-79
2023/09/26 03:12:25;;;;;;;2.25;2.05;;;;;;;;;;5035446;28;20417;-79
2023/09/26 03:15:00;;;;;;;2.23;2.03;;;;;;;;;;5052791;28;20386;-79
2023/09/26 03:18:04;;;;;;;2.55;2.35;;;;;;;;;;5053079;28;20385;-79
2023/09/26 03:20:41;;;;;;;2.23;2.07;;;;;;;;;;5002099;28;20415;-79
2023/09/26 03:23:12;;;;;;;2.28;2.08;;;;;;;;;;5053612;28;20389;-80
2023/09/26 03:26:01;;;;;;;2.40;2.20;;;;;;;;;;5054416;28;20724;-80
2023/09/26 03:28:33;;;;;;;2.92;1.90;;;;;;;;;;5055843;28;20405;-80
2023/09/26 03:30:59;;;;;;;2.50;2.28;;;;;;;;;;5053466;28;20389;-80
2023/09/26 03:33:27;;;;;;;2.47;2.00;;;;;;;;;;5052567;28;20381;-80
2023/09/26 03:35:56;;;;;;;2.13;1.95;;;;;;;;;;5053622;28;20397;-79
2023/09/26 03:38:23;;;;;;;3.05;2.30;;;;;;;;;;5053608;28;20409;-80
2023/09/26 03:40:49;;;;;;;2.40;2.20;;;;;;;;;;5053018;28;20806;-79
2023/09/26 03:43:21;;;;;;;3.83;2.35;;;;;;;;;;5053117;28;20386;-79
2023/09/26 03:45:50;;;;;;;3.80;2.47;;;;;;;;;;5052689;28;20916;-79
2023/09/26 03:48:22;;;;;;;3.45;2.30;;;;;;;;;;5052959;28;20395;-80
2023/09/26 03:50:49;;;;;;;2.40;2.20;;;;;;;;;;5052466;28;20381;-79
2023/09/26 03:53:21;;;;;;;2.50;2.30;;;;;;;;;;5038484;28;20701;-79
2023/09/26 03:55:56;;;;;;;2.20;2.00;;;;;;;;;;5052739;28;20931;-79
2023/09/26 03:58:25;;;;;;;2.28;2.08;;;;;;;;;;5052848;28;20386;-79
2023/09/26 04:00:51;;;;;;;2.20;2.00;;;;;;;;;;5053283;28;20917;-79
2023/09/26 04:03:29;;;;;;;2.70;2.40;;;;;;;;;;5052638;28;20385;-79
2023/09/26 04:05:58;;;;;;;3.03;2.30;;;;;;;;;;5053059;28;20422;-79
2023/09/26 04:08:24;;;;;;;2.53;2.15;;;;;;;;;;5063307;28;20720;-79
2023/09/26 04:10:59;;;;;;;2.33;2.22;;;;;;;;;;5052318;28;20381;-79
2023/09/26 04:13:25;;;;;;;5.05;2.15;;;;;;;;;;5052091;28;20389;-79
2023/09/26 04:15:52;;;;;;;2.45;2.25;;;;;;;;;;5052440;28;20377;-80
2023/09/26 04:18:18;;;;;;;2.47;2.28;;;;;;;;;;5052551;28;20424;-79
2023/09/26 04:20:45;;;;;;;2.30;2.10;;;;;;;;;;5034483;28;20469;-79
2023/09/26 04:23:11;;;;;;;2.92;2.70;;;;;;;;;;5052442;28;20393;-79
2023/09/26 04:25:37;;;;;;;2.55;2.35;;;;;;;;;;5052579;28;20731;-79
2023/09/26 04:28:07;;;;;;;3.15;2.63;;;;;;;;;;5050643;28;20473;-80
2023/09/26 04:30:43;;;;;;;2.77;2.43;;;;;;;;;;5052653;28;20419;-79
2023/09/26 04:33:09;;;;;;;2.92;2.72;;;;;;;;;;5033723;28;22088;-80
2023/09/26 04:35:37;;;;;;;3.20;2.90;;;;;;;;;;5051266;28;20742;-79
2023/09/26 04:38:04;;;;;;;3.15;2.85;;;;;;;;;;5055402;28;20377;-79
2023/09/26 04:40:30;;;;;;;3.13;2.93;;;;;;;;;;5051717;28;20473;-79
2023/09/26 04:42:59;;;;;;;3.50;2.83;;;;;;;;;;5052105;28;20416;-79
2023/09/26 04:45:29;;;;;;;3.08;2.83;;;;;;;;;;5052052;28;20405;-79
2023/09/26 04:47:59;;;;;;;2.83;2.63;;;;;;;;;;5052326;28;20386;-79
2023/09/26 04:50:31;;;;;;;3.05;2.75;;;;;;;;;;5034613;28;20377;-80
2023/09/26 04:53:02;;;;;;;3.15;2.85;;;;;;;;;;5052755;28;20950;-79
2023/09/26 04:55:46;;;;;;;2.83;2.50;;;;;;;;;;5052346;28;20417;-80
2023/09/26 04:58:17;;;;;;;3.08;2.88;;;;;;;;;;5051692;28;20912;-80
2023/09/26 05:00:49;;;;;;;4.18;2.88;;;;;;;;;;5051958;28;20468;-80
2023/09/26 05:03:15;;;;;;;3.90;2.70;;;;;;;;;;5049689;28;20425;-79
2023/09/26 05:06:01;;;;;;;2.80;2.50;;;;;;;;;;5052062;28;20381;-79
2023/09/26 05:08:38;;;;;;;3.20;2.75;;;;;;;;;;5052600;28;20386;-80
2023/09/26 05:11:04;;;;;;;3.10;2.90;;;;;;;;;;5051778;28;20377;-80
2023/09/26 05:13:44;;;;;;;3.05;2.85;;;;;;;;;;5052097;28;20431;-80
2023/09/26 05:16:11;;;;;;;3.30;3.00;;;;;;;;;;5051925;28;20377;-80
2023/09/26 05:18:46;;;;;;;2.70;2.50;;;;;;;;;;5054648;28;20381;-79
2023/09/26 05:21:21;;;;;;;3.28;2.53;;;;;;;;;;5058605;28;20445;-79
2023/09/26 05:23:50;;;;;;;2.97;2.63;;;;;;;;;;5051687;28;20382;-79
2023/09/26 05:26:19;;;;;;;3.17;2.70;;;;;;;;;;5051323;28;20390;-79
2023/09/26 05:28:45;;;;;;;3.20;2.90;;;;;;;;;;5052265;28;20452;-78
2023/09/26 05:31:11;;;;;;;3.22;2.92;;;;;;;;;;5033027;28;20440;-79
2023/09/26 05:33:37;;;;;;;3.10;2.80;;;;;;;;;;5051321;28;20377;-79
2023/09/26 05:36:06;;;;;;;3.60;3.30;;;;;;;;;;5050474;28;20743;-79
2023/09/26 05:38:32;;;;;;;2.80;2.60;;;;;;;;;;5051784;28;20373;-79
2023/09/26 05:40:58;;;;;;;2.50;2.30;;;;;;;;;;5052210;28;20758;-79
2023/09/26 05:43:24;;;;;;;2.78;2.58;;;;;;;;;;5051111;28;20381;-79
2023/09/26 05:45:53;;;;;;;2.60;2.40;;;;;;;;;;5053299;28;20385;-79
2023/09/26 05:48:20;;;;;;;3.13;2.90;;;;;;;;;;5055046;28;20373;-79
2023/09/26 05:50:46;;;;;;;3.40;3.10;;;;;;;;;;5054708;28;20386;-79
2023/09/26 05:53:12;;;;;;;3.27;2.87;;;;;;;;;;5054237;28;20411;-79
2023/09/26 05:55:38;;;;;;;3.20;2.90;;;;;;;;;;5060700;28;20441;-79
2023/09/26 05:58:04;;;;;;;3.13;2.92;;;;;;;;;;5054890;28;20385;-79
2023/09/26 06:00:30;;;;;;;2.90;2.70;;;;;;;;;;5054667;28;20393;-79
2023/09/26 06:02:56;;;;;;;3.72;2.83;;;;;;;;;;5054378;28;20413;-79
2023/09/26 06:05:22;;;;;;;3.20;3.00;;;;;;;;;;5054829;28;20390;-79
2023/09/26 06:07:51;;;;;;;3.10;2.90;;;;;;;;;;5069006;28;20493;-78
2023/09/26 06:10:17;;;;;;;3.30;3.00;;;;;;;;;;5054597;28;20478;-79
2023/09/26 06:12:44;;;;;;;3.70;3.40;;;;;;;;;;5054377;28;20377;-80
2023/09/26 06:15:10;;;;;;;3.60;3.03;;;;;;;;;;5054235;28;20390;-80
2023/09/26 06:17:36;;;;;;;4.05;3.60;;;;;;;;;;5054430;28;20907;-80
2023/09/26 06:20:05;;;;;;;5.78;5.28;;;;;;;;;;5053897;28;20382;-80
2023/09/26 06:22:31;;;;;;;4.13;3.43;;;;;;;;;;5054302;28;20417;-79
2023/09/26 06:24:58;;;;;;;3.85;3.55;;;;;;;;;;5053907;28;20417;-80
2023/09/26 06:27:24;;;;;;;3.70;3.40;;;;;;;;;;5054292;28;20373;-80
2023/09/26 06:29:50;;;;;;;3.83;3.53;;;;;;;;;;5053339;28;20384;-79
2023/09/26 06:32:16;;;;;;;3.53;3.22;;;;;;;;;;5036194;28;20451;-80
2023/09/26 06:34:44;;;;;;;4.85;4.35;;;;;;;;;;5054449;28;20386;-80
2023/09/26 06:37:10;;;;;;;4.47;4.13;;;;;;;;;;5054139;28;20468;-79
2023/09/26 06:39:36;;;;;;;4.15;3.85;;;;;;;;;;5054115;28;20393;-80
2023/09/26 06:42:02;;;;;;;5.03;4.63;;;;;;;;;;5053475;28;20417;-79
2023/09/26 06:44:29;;;;;;;4.85;4.40;;;;;;;;;;5052644;28;20376;-80
2023/09/26 06:46:55;;;;;;;4.60;4.30;;;;;;;;;;5056640;28;20382;-79
2023/09/26 06:49:21;;;;;;;5.25;4.35;;;;;;;;;;5053902;28;20503;-80
2023/09/26 06:51:47;;;;;;;4.72;4.32;;;;;;;;;;5054256;28;20420;-79
2023/09/26 06:54:55;;;;;;;5.07;4.60;;;;;;;;;;5082803;23;20415;-79
2023/09/26 06:57:35;;;;;;;5.40;5.00;;;;;;;;;;5068610;28;20401;-79
2023/09/26 07:00:05;;;;;;;5.18;4.72;;;;;;;;;;5073410;28;20394;-79
2023/09/26 07:02:54;;;;;;;6.10;4.70;;;;;;;;;;5073895;28;20420;-80
2023/09/26 07:05:20;;;;;;;5.80;5.13;;;;;;;;;;5041784;28;20867;-80
2023/09/26 07:07:46;;;;;;;4.70;4.40;;;;;;;;;;5049040;28;20458;-80
2023/09/26 07:13:45;;;;;;;5.85;5.28;;;;;;;;;;5063058;23;20435;-81
2023/09/26 07:16:11;;;;;;;7.55;6.97;;;;;;;;;;5067597;28;20383;-80
2023/09/26 07:18:37;;;;;;;7.95;7.25;;;;;;;;;;5073495;28;20922;-81
2023/09/26 07:21:06;;;;;;;7.85;7.00;;;;;;;;;;5067660;28;20411;-80
2023/09/26 07:23:35;;;;;;;7.40;6.80;;;;;;;;;;5073106;28;20525;-80
2023/09/26 07:26:16;;;;;;;8.40;7.70;;;;;;;;;;5073327;28;20415;-80
2023/09/26 07:28:43;;;;;;;9.45;8.57;;;;;;;;;;5076940;28;20384;-80
2023/09/26 07:31:11;;;;;;;9.05;8.15;;;;;;;;;;5074513;28;20383;-80
2023/09/26 07:33:37;;;;;;;9.30;8.57;;;;;;;;;;5073464;28;20386;-79
2023/09/26 07:36:04;;;;;;;10.25;9.25;;;;;;;;;;5073985;28;20698;-80
2023/09/26 07:38:30;;;;;;;9.32;8.43;;;;;;;;;;5068182;28;20392;-80
2023/09/26 07:40:56;;;;;;;8.88;8.02;;;;;;;;;;5070955;28;20412;-79
2023/09/26 07:43:23;;;;;;;9.50;8.63;;;;;;;;;;5072325;28;20379;-80
2023/09/26 07:45:49;;;;;;;10.25;9.15;;;;;;;;;;5069277;28;20379;-80
2023/09/26 07:48:15;;;;;;;11.63;10.00;;;;;;;;;;5069482;28;20410;-79
2023/09/26 07:50:41;;;;;;;10.00;8.98;;;;;;;;;;5072895;28;20379;-79
2023/09/26 07:53:09;;;;;;;10.93;9.75;;;;;;;;;;5073048;28;20384;-80
2023/09/26 07:55:35;;;;;;;11.68;10.57;;;;;;;;;;5075024;28;20389;-79
2023/09/26 07:58:01;;;;;;;12.73;11.43;;;;;;;;;;5051084;28;20401;-79
2023/09/26 08:00:27;;;;;;;15.65;12.93;;;;;;;;;;5067932;28;20939;-80
2023/09/26 08:02:53;;;;;;;18.60;13.13;;;;;;;;;;5066204;28;20419;-80
2023/09/26 08:05:19;;;;;;;13.15;11.85;;;;;;;;;;5068988;28;20375;-80
2023/09/26 08:07:45;;;;;;;13.40;11.93;;;;;;;;;;5069231;28;20392;-80
2023/09/26 08:10:11;;;;;;;14.43;11.77;;;;;;;;;;5072328;28;20403;-80
2023/09/26 08:12:37;;;;;;;18.02;12.32;;;;;;;;;;5080133;28;20384;-83
2023/09/26 08:15:03;;;;;;;15.70;11.70;;;;;;;;;;5071104;28;20387;-83
2023/09/26 08:17:29;;;;;;;10.43;9.32;;;;;;;;;;5074612;28;20383;-80
2023/09/26 08:19:55;;;;;;;11.80;10.60;;;;;;;;;;5068833;28;20401;-79
2023/09/26 08:22:21;;;;;;;12.35;10.13;;;;;;;;;;5071376;28;20427;-80
2023/09/26 08:24:47;;;;;;;10.65;9.65;;;;;;;;;;5063635;28;20769;-79
2023/09/26 08:27:14;;;;;;;9.40;8.50;;;;;;;;;;5069490;28;20408;-80
2023/09/26 08:29:41;;;;;;;9.53;8.73;;;;;;;;;;5067195;28;20376;-80
2023/09/26 08:32:07;;;;;;;9.27;8.43;;;;;;;;;;5077160;28;20459;-80
2023/09/26 08:34:33;;;;;;;8.50;7.80;;;;;;;;;;5074668;28;20694;-80
2023/09/26 08:36:58;;;;;;;11.43;10.43;;;;;;;;;;5076549;28;20395;-79
2023/09/26 08:39:24;;;;;;;10.85;9.93;;;;;;;;;;5075294;28;20386;-79
2023/09/26 08:41:51;;;;;;;11.10;9.85;;;;;;;;;;5072895;28;20504;-81
2023/09/26 08:44:17;;;;;;;10.07;9.20;;;;;;;;;;5071628;28;20426;-81
2023/09/26 08:46:44;;;;;;;9.65;8.85;;;;;;;;;;5076093;28;20437;-82
2023/09/26 08:49:10;;;;;;;9.85;8.95;;;;;;;;;;5073308;28;20837;-82
2023/09/26 08:51:37;;;;;;;9.88;8.98;;;;;;;;;;5079105;28;20388;-84
2023/09/26 08:54:03;;;;;;;9.32;8.52;;;;;;;;;;5058616;28;20868;-83
2023/09/26 08:56:30;;;;;;;8.80;8.05;;;;;;;;;;5072270;28;20383;-83
2023/09/26 08:58:56;;;;;;;9.35;8.55;;;;;;;;;;5077382;28;20417;-84
2023/09/26 09:01:23;;;;;;;9.43;8.63;;;;;;;;;;5085117;28;20415;-83
2023/09/26 09:03:49;;;;;;;10.90;9.90;;;;;;;;;;5070056;28;20434;-83
2023/09/26 09:06:15;;;;;;;10.20;9.32;;;;;;;;;;5077984;28;20439;-83
2023/09/26 09:08:41;;;;;;;10.27;9.18;;;;;;;;;;5063131;28;20391;-83
2023/09/26 09:11:07;;;;;;;9.60;8.70;;;;;;;;;;5077877;28;20525;-83
2023/09/26 09:13:34;;;;;;;12.90;9.73;;;;;;;;;;5068641;28;20414;-83
2023/09/26 09:16:07;;;;;;;12.82;10.90;;;;;;;;;;5086319;28;20368;-83
2023/09/26 09:18:33;;;;;;;11.32;9.90;;;;;;;;;;5078002;28;20419;-83
2023/09/26 09:20:59;;;;;;;12.20;10.23;;;;;;;;;;5079345;28;20400;-83
2023/09/26 09:23:25;;;;;;;9.87;9.07;;;;;;;;;;5079623;28;20945;-82
2023/09/26 09:25:51;;;;;;;10.70;9.60;;;;;;;;;;5079916;28;20389;-83
2023/09/26 09:28:21;;;;;;;10.07;9.18;;;;;;;;;;5080347;28;20761;-83
2023/09/26 09:30:47;;;;;;;9.67;8.87;;;;;;;;;;5079914;28;20872;-83
2023/09/26 09:33:16;;;;;;;11.07;9.98;;;;;;;;;;5079688;28;20414;-83
2023/09/26 09:35:43;;;;;;;11.07;10.07;;;;;;;;;;5081045;28;20745;-82
2023/09/26 09:38:12;;;;;;;11.07;9.98;;;;;;;;;;5080025;28;20383;-82
2023/09/26 09:40:38;;;;;;;9.70;8.70;;;;;;;;;;5080061;28;20901;-82
2023/09/26 09:43:05;;;;;;;10.52;9.48;;;;;;;;;;5079702;28;20411;-83
2023/09/26 09:45:32;;;;;;;11.05;9.93;;;;;;;;;;5079405;28;20407;-83
2023/09/26 09:48:03;;;;;;;10.07;9.07;;;;;;;;;;5079869;28;20388;-83
2023/09/26 09:50:31;;;;;;;12.13;10.80;;;;;;;;;;5080171;28;20387;-83
2023/09/26 09:53:01;;;;;;;14.50;12.20;;;;;;;;;;5079384;28;20429;-83
2023/09/26 09:55:32;;;;;;;10.63;9.52;;;;;;;;;;5093314;28;20465;-83
2023/09/26 09:58:02;;;;;;;8.82;8.02;;;;;;;;;;5079081;28;20372;-83
2023/09/26 10:00:28;;;;;;;8.70;7.47;;;;;;;;;;5078868;28;20392;-83
2023/09/26 10:03:00;;;;;;;9.30;7.78;;;;;;;;;;5083511;28;20738;-83
2023/09/26 10:05:28;;;;;;;8.80;7.90;;;;;;;;;;5079920;28;20474;-83
2023/09/26 10:07:55;;;;;;;8.43;7.63;;;;;;;;;;5079880;28;20841;-83
2023/09/26 10:10:22;;;;;;;9.00;8.20;;;;;;;;;;5079537;28;20463;-83
2023/09/26 10:12:48;;;;;;;9.95;9.05;;;;;;;;;;5080504;28;20407;-83
2023/09/26 10:15:16;;;;;;;8.45;7.70;;;;;;;;;;5078707;28;20441;-83
2023/09/26 10:17:42;;;;;;;8.63;7.93;;;;;;;;;;5068507;28;20384;-83
2023/09/26 10:20:11;;;;;;;9.45;8.68;;;;;;;;;;5078129;28;20376;-83
2023/09/26 10:22:41;;;;;;;8.43;7.82;;;;;;;;;;5081334;28;20490;-83
2023/09/26 10:25:07;;;;;;;7.93;7.25;;;;;;;;;;5078586;28;20380;-83
2023/09/26 10:27:33;;;;;;;9.30;8.57;;;;;;;;;;5078623;28;20411;-82
2023/09/26 10:30:02;;;;;;;8.50;7.90;;;;;;;;;;5087477;28;20382;-82
2023/09/26 10:32:35;;;;;;;7.43;6.72;;;;;;;;;;5081208;28;20380;-82
2023/09/26 10:35:31;;;;;;;6.70;6.20;;;;;;;;;;5084304;28;20371;-83
2023/09/26 10:38:19;;;;;;;7.40;6.80;;;;;;;;;;5067364;28;20396;-83
2023/09/26 10:40:45;;;;;;;7.18;6.55;;;;;;;;;;5082048;28;20857;-83
2023/09/26 10:43:11;;;;;;;7.68;7.07;;;;;;;;;;5080220;28;20386;-83
2023/09/26 10:45:37;;;;;;;8.13;7.50;;;;;;;;;;5078472;28;20467;-84
2023/09/26 10:48:17;;;;;;;8.27;7.57;;;;;;;;;;5081394;28;20423;-83
2023/09/26 10:50:43;;;;;;;8.07;7.37;;;;;;;;;;5079551;28;20376;-83
2023/09/26 10:53:09;;;;;;;16.17;11.50;;;;;;;;;;5081443;28;20376;-83
2023/09/26 10:55:35;;;;;;;8.03;7.33;;;;;;;;;;5081852;28;20428;-83
2023/09/26 10:58:01;;;;;;;6.70;6.20;;;;;;;;;;5079769;28;20394;-83
2023/09/26 11:00:27;;;;;;;6.68;5.97;;;;;;;;;;5065618;28;20793;-83
2023/09/26 11:02:53;;;;;;;8.23;7.43;;;;;;;;;;5093073;28;20418;-84
2023/09/26 11:05:19;;;;;;;8.55;7.60;;;;;;;;;;5081104;28;20383;-83
2023/09/26 11:07:48;;;;;;;7.53;6.82;;;;;;;;;;5077805;28;20820;-81
2023/09/26 11:10:17;;;;;;;7.85;7.15;;;;;;;;;;5075077;28;20391;-81
2023/09/26 11:12:46;;;;;;;5.60;5.10;;;;;;;;;;5065617;28;20391;-81
2023/09/26 11:15:15;;;;;;;4.97;4.47;;;;;;;;;;5091236;28;20836;-81
2023/09/26 11:17:41;;;;;;;5.00;4.60;;;;;;;;;;5078505;28;20395;-81
2023/09/26 11:20:11;;;;;;;4.88;4.30;;;;;;;;;;5077695;28;20792;-82
2023/09/26 11:22:47;;;;;;;4.50;4.10;;;;;;;;;;5078138;28;20454;-81
2023/09/26 11:25:16;;;;;;;4.30;3.90;;;;;;;;;;5078202;28;20387;-82
2023/09/26 11:27:43;;;;;;;5.43;4.93;;;;;;;;;;5078694;28;20384;-82
2023/09/26 11:30:13;;;;;;;6.82;6.15;;;;;;;;;;5078123;28;20474;-82
2023/09/26 11:32:40;;;;;;;5.47;4.90;;;;;;;;;;5078500;28;20387;-81
2023/09/26 11:35:08;;;;;;;6.05;5.28;;;;;;;;;;5078587;28;20845;-82
2023/09/26 11:37:36;;;;;;;6.10;5.50;;;;;;;;;;5078098;28;20396;-82
2023/09/26 11:40:06;;;;;;;7.05;5.93;;;;;;;;;;5078561;28;20380;-82
2023/09/26 11:42:40;;;;;;;6.43;5.82;;;;;;;;;;5078067;28;20924;-82
2023/09/26 11:45:06;;;;;;;8.07;6.47;;;;;;;;;;5079103;28;20399;-82
2023/09/26 11:47:32;;;;;;;9.57;7.53;;;;;;;;;;5079047;28;20447;-82
2023/09/26 11:49:58;;;;;;;6.00;5.50;;;;;;;;;;5080989;28;20427;-82
2023/09/26 11:52:25;;;;;;;6.63;5.00;;;;;;;;;;5078656;28;20383;-82
2023/09/26 11:54:51;;;;;;;5.20;4.43;;;;;;;;;;5079978;28;20383;-82
2023/09/26 11:57:18;;;;;;;4.97;4.47;;;;;;;;;;5080884;28;20793;-82
2023/09/26 11:59:44;;;;;;;4.60;4.00;;;;;;;;;;5080095;28;20380;-82
2023/09/26 12:02:11;;;;;;;4.68;4.28;;;;;;;;;;5080090;28;20888;-82
2023/09/26 12:04:40;;;;;;;4.65;4.25;;;;;;;;;;5078210;28;20848;-82
2023/09/26 12:07:09;;;;;;;4.32;3.90;;;;;;;;;;5079551;28;20384;-82
2023/09/26 12:09:35;;;;;;;4.05;3.70;;;;;;;;;;5078651;28;20376;-82
2023/09/26 12:12:01;;;;;;;4.10;3.53;;;;;;;;;;5079918;28;20445;-82
2023/09/26 12:14:27;;;;;;;4.00;3.63;;;;;;;;;;5085219;28;20394;-82
2023/09/26 12:16:53;;;;;;;5.00;4.28;;;;;;;;;;5077620;28;20407;-82
2023/09/26 12:19:20;;;;;;;4.93;4.20;;;;;;;;;;5079236;28;20411;-82
2023/09/26 12:21:46;;;;;;;5.07;4.25;;;;;;;;;;5078580;28;20769;-82
2023/09/26 12:24:16;;;;;;;3.65;3.35;;;;;;;;;;5078271;28;20376;-82
2023/09/26 12:26:45;;;;;;;3.60;3.30;;;;;;;;;;5078109;28;20405;-82
2023/09/26 12:29:11;;;;;;;3.83;3.42;;;;;;;;;;5075985;28;20392;-82
2023/09/26 12:31:37;;;;;;;3.53;3.20;;;;;;;;;;5080356;28;20387;-82
2023/09/26 12:34:03;;;;;;;4.35;3.95;;;;;;;;;;5078176;28;20399;-82
2023/09/26 12:36:30;;;;;;;4.72;4.18;;;;;;;;;;5078257;28;20383;-82
2023/09/26 12:38:56;;;;;;;5.35;4.07;;;;;;;;;;5077935;28;20453;-82
2023/09/26 12:41:22;;;;;;;5.15;4.65;;;;;;;;;;5078040;28;20470;-82
2023/09/26 12:43:51;;;;;;;5.70;4.87;;;;;;;;;;5078443;28;20418;-82
2023/09/26 12:46:17;;;;;;;4.85;3.92;;;;;;;;;;5078432;28;20387;-82
2023/09/26 12:48:43;;;;;;;10.03;7.13;;;;;;;;;;5079288;28;20452;-82
2023/09/26 12:51:09;;;;;;;10.85;9.70;;;;;;;;;;5077016;28;20869;-82
2023/09/26 12:53:35;;;;;;;10.20;7.90;;;;;;;;;;5061913;28;20403;-82
2023/09/26 12:56:01;;;;;;;5.45;4.45;;;;;;;;;;5059612;28;20391;-82
2023/09/26 12:58:28;;;;;;;4.40;3.00;;;;;;;;;;5070241;28;20380;-82
2023/09/26 13:00:54;;;;;;;3.70;2.60;;;;;;;;;;5076059;28;20903;-82
2023/09/26 13:03:20;;;;;;;3.87;3.50;;;;;;;;;;5078930;28;20382;-82
2023/09/26 13:05:46;;;;;;;5.70;5.03;;;;;;;;;;5088139;28;20731;-82
2023/09/26 13:08:12;;;;;;;3.80;3.40;;;;;;;;;;5074791;28;20387;-82
2023/09/26 13:10:38;;;;;;;4.47;3.30;;;;;;;;;;5074118;28;20390;-82
2023/09/26 13:13:04;;;;;;;3.65;2.33;;;;;;;;;;5075794;28;20390;-82
2023/09/26 13:15:31;;;;;;;3.50;2.90;;;;;;;;;;5075661;28;20871;-82
2023/09/26 13:17:57;;;;;;;4.43;3.20;;;;;;;;;;5074404;28;20387;-82
2023/09/26 13:20:23;;;;;;;5.40;3.55;;;;;;;;;;5075230;28;20951;-82
2023/09/26 13:22:50;;;;;;;4.50;3.20;;;;;;;;;;5075172;28;20427;-82
2023/09/26 13:25:16;;;;;;;4.00;2.30;;;;;;;;;;5074643;28;20390;-81
2023/09/26 13:27:42;;;;;;;3.08;2.88;;;;;;;;;;5074632;28;20387;-82
2023/09/26 13:30:08;;;;;;;3.38;2.35;;;;;;;;;;5074348;28;20391;-82
2023/09/26 13:32:34;;;;;;;4.65;2.80;;;;;;;;;;5074306;28;20757;-81
2023/09/26 13:35:03;;;;;;;5.90;3.72;;;;;;;;;;5074103;28;20434;-81
2023/09/26 13:37:29;;;;;;;6.00;4.93;;;;;;;;;;5074621;28;20449;-81
2023/09/26 13:39:55;;;;;;;3.47;2.67;;;;;;;;;;5074378;28;20384;-81
2023/09/26 13:42:21;;;;;;;4.60;3.60;;;;;;;;;;5074204;28;20505;-81
2023/09/26 13:44:47;;;;;;;3.20;2.70;;;;;;;;;;5074258;28;20392;-81
2023/09/26 13:47:13;;;;;;;3.45;2.80;;;;;;;;;;5074429;28;20375;-82
2023/09/26 13:49:39;;;;;;;3.00;2.55;;;;;;;;;;5074121;28;20384;-82
2023/09/26 13:52:05;;;;;;;4.53;2.83;;;;;;;;;;5073105;28;20502;-81
2023/09/26 13:54:33;;;;;;;3.70;2.67;;;;;;;;;;5074144;28;20837;-81
2023/09/26 13:56:59;;;;;;;3.20;2.90;;;;;;;;;;5077576;28;20380;-81
2023/09/26 13:59:25;;;;;;;3.67;2.83;;;;;;;;;;5074841;28;20915;-81
2023/09/26 14:01:51;;;;;;;4.32;2.53;;;;;;;;;;5074604;28;20415;-81
2023/09/26 14:04:17;;;;;;;2.53;2.10;;;;;;;;;;5073829;28;20388;-81
2023/09/26 14:06:43;;;;;;;2.75;2.42;;;;;;;;;;5074579;28;20376;-81
2023/09/26 14:09:09;;;;;;;3.72;2.60;;;;;;;;;;5077382;28;20392;-81
2023/09/26 14:11:35;;;;;;;2.80;2.50;;;;;;;;;;5077205;28;20415;-81
2023/09/26 14:14:01;;;;;;;2.90;2.60;;;;;;;;;;5077847;28;20387;-81
2023/09/26 14:16:27;;;;;;;3.17;2.50;;;;;;;;;;5086947;28;20378;-81
2023/09/26 14:18:53;;;;;;;3.00;2.58;;;;;;;;;;5077299;28;20384;-81
2023/09/26 14:21:19;;;;;;;2.83;2.38;;;;;;;;;;5077491;28;20421;-81
2023/09/26 14:23:46;;;;;;;3.80;2.80;;;;;;;;;;5075137;28;20379;-81
2023/09/26 14:29:15;;;;;;;2.72;2.30;;;;;;;;;;5075301;28;21060;-81
2023/09/26 14:31:41;;;;;;;4.10;2.45;;;;;;;;;;5074622;28;20937;-81
2023/09/26 14:34:07;;;;;;;2.80;2.50;;;;;;;;;;5076020;28;20415;-81
2023/09/26 14:36:35;;;;;;;3.53;2.70;;;;;;;;;;5078050;28;20384;-81
2023/09/26 14:39:01;;;;;;;6.30;3.30;;;;;;;;;;5075175;28;20849;-81
2023/09/26 14:41:27;;;;;;;4.82;4.13;;;;;;;;;;5075290;28;20469;-81
2023/09/26 14:43:53;;;;;;;5.40;4.47;;;;;;;;;;5073424;28;20398;-81
2023/09/26 14:46:19;;;;;;;3.78;3.00;;;;;;;;;;5075466;28;20852;-81
2023/09/26 14:48:45;;;;;;;4.57;2.33;;;;;;;;;;5075371;28;20463;-81
2023/09/26 14:51:12;;;;;;;2.70;2.42;;;;;;;;;;5075092;28;20841;-81
2023/09/26 14:53:38;;;;;;;3.40;2.60;;;;;;;;;;5068347;28;20444;-81
2023/09/26 14:56:04;;;;;;;3.30;2.65;;;;;;;;;;5064853;28;20748;-81
2023/09/26 14:58:30;;;;;;;3.17;2.30;;;;;;;;;;5077794;28;20394;-81